Time;durP1;ratioP1;P1;durP2;ratioP2;P2;SDS_P1;SDS_P2;PMS_P1;PMS_P2;Temp;Humidity;BMP_temperature;BMP_pressure;BME280_temperature;BME280_humidity;BME280_pressure;Samples;Min_cycle;Max_cycle;Signal;HPM_P1;HPM_P2
2022/07/26 00:02:57;;;;;;;2.90;2.70;;;;;;;19.14;54.15;99086.17;213165;1279;140706;-65
2022/07/26 00:08:09;;;;;;;3.00;2.80;;;;;;;19.11;54.34;99082.52;214865;1277;140055;-62
2022/07/26 00:13:11;;;;;;;3.80;3.50;;;;;;;19.08;54.44;99080.49;215649;1278;139843;-65
2022/07/26 00:18:15;;;;;;;2.80;2.60;;;;;;;19.08;54.60;99082.98;215023;1278;139756;-64
2022/07/26 00:23:18;;;;;;;3.70;2.10;;;;;;;19.09;54.78;99079.87;213445;1279;140358;-65
2022/07/26 00:28:22;;;;;;;3.80;3.20;;;;;;;19.09;54.81;99081.91;212824;1279;144962;-64
2022/07/26 00:33:25;;;;;;;3.30;3.10;;;;;;;19.11;55.11;99079.38;213776;1277;141958;-65
2022/07/26 00:38:28;;;;;;;3.40;3.20;;;;;;;19.12;55.02;99073.48;213204;1277;140757;-66
2022/07/26 00:43:31;;;;;;;3.50;3.20;;;;;;;19.13;55.23;99073.35;213131;1277;142617;-64
2022/07/26 00:48:35;;;;;;;4.40;3.20;;;;;;;19.09;55.33;99072.52;213457;1278;141503;-64
2022/07/26 00:53:38;;;;;;;11.50;3.40;;;;;;;19.08;55.45;99070.33;213532;1277;141459;-63
2022/07/26 00:58:42;;;;;;;4.50;4.10;;;;;;;19.05;55.49;99071.19;213777;1277;140429;-65
2022/07/26 01:03:51;;;;;;;4.60;4.20;;;;;;;19.01;55.72;99061.95;213544;1279;139826;-65
2022/07/26 01:08:55;;;;;;;3.40;3.20;;;;;;;18.96;55.94;99064.19;213561;1277;140757;-65
2022/07/26 01:13:58;;;;;;;9.50;3.80;;;;;;;18.93;56.15;99060.72;213048;1277;142482;-62
2022/07/26 01:19:01;;;;;;;3.90;3.40;;;;;;;18.88;56.30;99054.93;214230;1277;140617;-65
2022/07/26 01:24:04;;;;;;;6.20;3.70;;;;;;;18.86;56.51;99051.14;212617;1279;141142;-65
2022/07/26 01:29:08;;;;;;;8.80;4.60;;;;;;;18.84;56.42;99054.42;213640;1277;140940;-65
2022/07/26 01:34:11;;;;;;;4.30;3.90;;;;;;;18.82;56.61;99051.54;214187;1277;142155;-65
2022/07/26 01:39:14;;;;;;;7.50;4.00;;;;;;;18.78;56.72;99043.69;213381;1277;139791;-64
2022/07/26 01:44:16;;;;;;;4.70;3.50;;;;;;;18.73;56.82;99034.36;213584;1279;140410;-63
2022/07/26 01:49:19;;;;;;;5.10;3.90;;;;;;;18.67;57.03;99023.39;213844;1280;139746;-64
2022/07/26 01:54:22;;;;;;;3.90;3.60;;;;;;;18.63;57.22;99016.10;213194;1280;140075;-63
2022/07/26 01:59:26;;;;;;;5.20;4.10;;;;;;;18.55;57.41;99003.70;214768;1278;139972;-64
2022/07/26 02:09:50;;;;;;;3.90;3.50;;;;;;;18.48;57.86;99006.02;214878;1278;140051;-63
2022/07/26 02:14:54;;;;;;;4.50;4.10;;;;;;;18.45;57.89;98996.80;215478;1278;141589;-65
2022/07/26 02:19:56;;;;;;;11.90;4.30;;;;;;;18.45;58.08;98992.81;215326;1277;141036;-63
2022/07/26 02:24:58;;;;;;;4.70;4.30;;;;;;;18.46;58.22;98989.66;215561;1277;141310;-65
2022/07/26 02:30:07;;;;;;;3.90;3.60;;;;;;;18.50;58.27;98993.57;214432;1277;140832;-64
2022/07/26 02:35:11;;;;;;;4.20;3.60;;;;;;;18.55;58.42;98987.80;214887;1277;142602;-65
2022/07/26 02:40:14;;;;;;;4.40;4.00;;;;;;;18.58;58.26;98985.83;214127;1279;140442;-64
2022/07/26 02:45:21;;;;;;;4.40;4.00;;;;;;;18.64;58.32;98978.50;213991;1278;139996;-64
2022/07/26 02:50:26;;;;;;;9.20;4.40;;;;;;;18.65;58.34;98971.71;214339;1277;142056;-64
2022/07/26 02:55:30;;;;;;;17.40;4.90;;;;;;;18.66;58.43;98969.21;213567;1277;140608;-64
2022/07/26 03:00:32;;;;;;;4.50;4.20;;;;;;;18.68;58.39;98968.93;214603;1277;140411;-64
2022/07/26 03:05:36;;;;;;;4.10;3.90;;;;;;;18.69;58.36;98967.60;212514;1279;140516;-65
2022/07/26 03:10:39;;;;;;;5.20;4.70;;;;;;;18.70;58.38;98958.36;212991;1277;140867;-63
2022/07/26 03:15:42;;;;;;;4.90;4.10;;;;;;;18.64;58.52;98946.46;212820;1278;142479;-63
2022/07/26 03:20:46;;;;;;;4.80;4.30;;;;;;;18.60;58.63;98936.42;212625;1279;141644;-63
2022/07/26 03:25:49;;;;;;;4.70;4.30;;;;;;;18.57;58.81;98934.36;212797;1279;140434;-63
2022/07/26 03:30:52;;;;;;;5.70;4.30;;;;;;;18.55;58.99;98927.51;214282;1279;139605;-63
2022/07/26 03:35:54;;;;;;;4.40;4.10;;;;;;;18.52;59.22;98927.03;213903;1277;140878;-63
2022/07/26 03:40:56;;;;;;;5.50;4.50;;;;;;;18.55;59.27;98933.44;214173;1277;142217;-63
2022/07/26 03:45:58;;;;;;;10.30;3.80;;;;;;;18.64;59.34;98939.81;213577;1279;139941;-63
2022/07/26 03:51:01;;;;;;;5.10;4.60;;;;;;;18.77;59.28;98937.02;213507;1277;139641;-65
2022/07/26 04:01:25;;;;;;;7.80;5.00;;;;;;;19.03;59.16;98948.58;215836;1277;139364;-65
2022/07/26 04:06:28;;;;;;;6.60;3.90;;;;;;;19.11;59.05;98946.98;215246;1278;139678;-65
2022/07/26 04:11:32;;;;;;;9.40;4.50;;;;;;;19.20;59.06;98948.46;215289;1277;140566;-66
2022/07/26 04:16:35;;;;;;;6.60;4.50;;;;;;;19.34;59.16;98958.52;215629;1277;139870;-64
2022/07/26 04:21:45;;;;;;;5.60;4.80;;;;;;;19.41;59.02;98957.36;213597;1277;141031;-65
2022/07/26 04:26:48;;;;;;;5.60;5.10;;;;;;;19.44;59.20;98952.25;213850;1277;140014;-64
2022/07/26 04:31:51;;;;;;;5.00;4.60;;;;;;;19.46;59.24;98961.86;214282;1277;139910;-65
2022/07/26 04:36:54;;;;;;;6.50;5.40;;;;;;;19.54;59.53;98982.95;214136;1279;139277;-64
2022/07/26 04:41:57;;;;;;;4.90;4.60;;;;;;;19.64;59.57;98997.35;212964;1278;141275;-64
2022/07/26 04:47:00;;;;;;;7.80;5.00;;;;;;;19.69;59.50;99004.26;214029;1277;140479;-64
2022/07/26 04:52:03;;;;;;;5.30;4.40;;;;;;;19.76;59.83;99006.34;213147;1277;139443;-64
2022/07/26 04:57:07;;;;;;;9.20;4.40;;;;;;;19.84;59.66;99004.61;213731;1277;140580;-64
2022/07/26 05:02:13;;;;;;;5.80;5.30;;;;;;;19.88;60.17;99002.52;213458;1277;141585;-65
2022/07/26 05:07:16;;;;;;;5.60;4.90;;;;;;;19.90;60.46;98998.74;213177;1277;140662;-65
2022/07/26 05:12:20;;;;;;;5.40;5.00;;;;;;;19.94;60.61;99006.27;212969;1277;140165;-66
2022/07/26 05:17:23;;;;;;;7.60;5.90;;;;;;;19.98;60.75;99008.92;212901;1277;140559;-65
2022/07/26 05:22:29;;;;;;;4.40;4.10;;;;;;;20.00;61.01;99022.65;213416;1277;140251;-64
2022/07/26 05:27:31;;;;;;;5.50;4.90;;;;;;;19.99;61.49;99027.07;214232;1277;139840;-64
2022/07/26 05:32:34;;;;;;;5.80;5.30;;;;;;;20.00;61.78;99031.91;213557;1277;140691;-65
2022/07/26 05:37:38;;;;;;;5.60;5.10;;;;;;;20.03;61.94;99035.08;213571;1277;233740;-65
2022/07/26 05:42:40;;;;;;;5.50;5.00;;;;;;;20.16;61.89;99037.09;214280;1277;140792;-64
2022/07/26 05:47:44;;;;;;;4.80;4.20;;;;;;;20.32;62.31;99054.95;213926;1277;140735;-64
2022/07/26 05:52:47;;;;;;;4.50;4.10;;;;;;;20.46;62.28;99050.93;213932;1277;514971;-63
2022/07/26 05:57:50;;;;;;;6.00;5.60;;;;;;;20.64;62.18;99061.17;214705;1277;139553;-64
2022/07/26 06:02:53;;;;;;;7.50;5.20;;;;;;;20.82;62.28;99053.14;215259;1277;139755;-64
2022/07/26 06:07:56;;;;;;;5.60;5.10;;;;;;;20.98;61.68;99042.95;215339;1277;141846;-64
2022/07/26 06:12:59;;;;;;;6.10;5.60;;;;;;;21.12;61.20;99037.54;215515;1277;140554;-64
2022/07/26 06:18:02;;;;;;;10.50;5.30;;;;;;;21.22;60.64;99030.48;215612;1277;139369;-65
2022/07/26 06:23:05;;;;;;;8.80;6.00;;;;;;;21.29;60.46;99018.71;214637;1277;140180;-65
2022/07/26 06:28:09;;;;;;;6.30;4.80;;;;;;;21.34;59.99;99024.60;214656;1277;139717;-63
2022/07/26 06:33:11;;;;;;;4.70;4.30;;;;;;;21.32;60.55;99043.93;213790;1277;140355;-63
2022/07/26 06:38:14;;;;;;;5.00;4.60;;;;;;;21.31;61.00;99061.80;212907;1279;140213;-65
2022/07/26 06:43:17;;;;;;;4.80;4.40;;;;;;;21.28;60.76;99083.80;214208;1279;140327;-65
2022/07/26 06:48:21;;;;;;;5.80;5.30;;;;;;;21.20;60.50;99074.92;213687;1279;140435;-66
2022/07/26 06:53:25;;;;;;;6.20;5.00;;;;;;;21.15;60.41;99079.17;213128;1277;141636;-64
2022/07/26 06:58:29;;;;;;;8.80;5.90;;;;;;;21.14;60.60;99093.15;212755;1278;142200;-65
2022/07/26 07:03:32;;;;;;;4.80;4.40;;;;;;;21.19;60.55;99112.59;213202;1277;141257;-63
2022/07/26 07:08:35;;;;;;;7.00;6.20;;;;;;;21.30;59.97;99118.81;212924;1279;162795;-65
2022/07/26 07:13:38;;;;;;;6.80;5.30;;;;;;;21.42;59.71;99111.90;213279;1279;230962;-64
2022/07/26 07:18:42;;;;;;;6.50;5.00;;;;;;;21.61;59.65;99128.70;213071;1278;140019;-64
2022/07/26 07:23:47;;;;;;;7.50;5.90;;;;;;;21.77;59.33;99138.16;214098;1278;140606;-65
2022/07/26 07:28:51;;;;;;;16.00;6.40;;;;;;;21.92;59.11;99146.30;213542;1279;140668;-65
2022/07/26 07:33:56;;;;;;;7.00;6.00;;;;;;;22.13;59.16;99157.34;213408;1279;140754;-63
2022/07/26 07:39:00;;;;;;;5.60;5.20;;;;;;;22.28;59.03;99163.40;214872;1277;139961;-66
2022/07/26 07:44:08;;;;;;;7.70;5.90;;;;;;;22.39;58.68;99175.02;215218;1277;141770;-64
2022/07/26 07:49:11;;;;;;;6.80;6.30;;;;;;;22.46;58.54;99187.64;213919;1279;140385;-64
2022/07/26 07:54:15;;;;;;;7.50;6.30;;;;;;;22.39;58.29;99196.20;214792;1279;139584;-65
2022/07/26 07:59:17;;;;;;;7.00;6.50;;;;;;;22.23;58.47;99198.19;215373;1278;140548;-66
2022/07/26 08:04:22;;;;;;;12.50;7.70;;;;;;;22.15;58.77;99186.62;215215;1278;140951;-65
2022/07/26 08:09:25;;;;;;;7.00;6.40;;;;;;;22.19;59.37;99183.19;214612;1280;141523;-66
2022/07/26 08:14:31;;;;;;;8.00;7.20;;;;;;;22.39;59.69;99174.64;213409;1279;143866;-66
2022/07/26 08:19:35;;;;;;;10.40;8.00;;;;;;;22.68;59.89;99174.40;213382;1278;141766;-67
2022/07/26 08:24:45;;;;;;;9.70;8.50;;;;;;;23.00;59.89;99178.00;213815;1278;141157;-64
2022/07/26 08:29:47;;;;;;;9.50;8.70;;;;;;;23.15;59.73;99197.39;213252;1277;140711;-63
2022/07/26 08:34:49;;;;;;;11.30;10.20;;;;;;;23.08;59.75;99213.48;212754;1278;140934;-63
2022/07/26 08:39:51;;;;;;;10.80;9.60;;;;;;;22.86;59.84;99234.90;213131;1279;140754;-64
2022/07/26 08:44:54;;;;;;;7.20;6.60;;;;;;;22.57;60.44;99249.84;214223;1279;139406;-66
2022/07/26 08:49:57;;;;;;;10.20;9.30;;;;;;;22.30;60.98;99262.08;213935;1277;140228;-65
2022/07/26 08:55:00;;;;;;;14.20;9.70;;;;;;;22.13;61.46;99273.45;214065;1278;140140;-64
2022/07/26 09:00:28;;;;;;;11.50;8.80;;;;;;;22.06;61.93;99288.78;212555;1279;140239;-65
2022/07/26 09:05:36;;;;;;;11.40;10.20;;;;;;;21.93;62.38;99297.44;212663;1279;140489;-65
2022/07/26 09:10:38;;;;;;;9.50;8.40;;;;;;;21.78;62.96;99311.98;214733;1278;140104;-64
2022/07/26 09:15:41;;;;;;;11.20;10.10;;;;;;;21.67;63.58;99312.31;213812;1277;139308;-63
2022/07/26 09:20:46;;;;;;;11.10;10.00;;;;;;;21.57;63.98;99312.33;213742;1279;140551;-64
2022/07/26 09:25:55;;;;;;;11.50;10.40;;;;;;;21.49;64.73;99324.59;213322;1278;142511;-64
2022/07/26 09:31:03;;;;;;;12.90;11.40;;;;;;;21.34;65.49;99337.20;213112;1278;140914;-64
2022/07/26 09:36:08;;;;;;;11.60;10.50;;;;;;;21.21;66.22;99352.58;213224;1278;140454;-64
2022/07/26 09:41:19;;;;;;;14.40;10.90;;;;;;;21.07;66.95;99364.86;214215;1278;140286;-64
2022/07/26 09:46:31;;;;;;;18.20;10.00;;;;;;;21.04;67.50;99368.80;215219;1278;139809;-64
2022/07/26 09:51:44;;;;;;;12.60;10.70;;;;;;;21.00;67.94;99372.23;215315;1279;141725;-64
2022/07/26 09:56:53;;;;;;;12.80;11.50;;;;;;;20.96;68.32;99380.72;215291;1279;142584;-63
2022/07/26 10:01:58;;;;;;;14.30;12.80;;;;;;;20.89;68.83;99397.86;215467;1279;142514;-64
2022/07/26 10:07:04;;;;;;;12.50;10.20;;;;;;;20.83;69.12;99402.02;215571;1278;140497;-63
2022/07/26 10:12:14;;;;;;;13.90;12.50;;;;;;;20.80;69.46;99388.37;214751;1279;142981;-62
2022/07/26 10:17:28;;;;;;;11.40;10.40;;;;;;;20.80;69.79;99383.88;213922;1279;141813;-63
2022/07/26 10:22:46;;;;;;;11.90;9.60;;;;;;;20.84;70.14;99384.27;213132;1278;141855;-64
2022/07/26 10:27:52;;;;;;;13.80;11.10;;;;;;;20.88;70.42;99383.20;212657;1278;140534;-68
2022/07/26 10:33:01;;;;;;;12.40;10.50;;;;;;;20.86;70.70;99382.16;213453;1277;141086;-65
2022/07/26 10:38:14;;;;;;;13.80;10.50;;;;;;;20.85;70.73;99389.35;212965;1278;141208;-65
2022/07/26 10:43:18;;;;;;;9.40;8.40;;;;;;;20.79;70.83;99385.05;214043;1277;141562;-66
2022/07/26 10:49:02;;;;;;;9.60;8.60;;;;;;;20.80;71.03;99397.55;212847;1277;140606;-65
2022/07/26 10:54:11;;;;;;;9.40;8.60;;;;;;;20.78;70.92;99382.35;214170;1276;230631;-65
2022/07/26 10:59:31;;;;;;;5.90;5.30;;;;;;;20.78;70.86;99406.06;212946;1279;142363;-65
2022/07/26 11:05:12;;;;;;;6.30;5.70;;;;;;;20.79;70.58;99408.10;212983;1279;141561;-66
2022/07/26 11:10:15;;;;;;;6.40;5.70;;;;;;;20.84;70.72;99427.47;212884;1278;140977;-65
2022/07/26 11:15:22;;;;;;;7.00;6.40;;;;;;;20.85;70.43;99432.63;213164;1278;140724;-65
2022/07/26 11:20:27;;;;;;;6.40;5.70;;;;;;;20.82;70.79;99436.67;213620;1279;141638;-66
2022/07/26 11:25:34;;;;;;;8.90;6.30;;;;;;;20.84;70.82;99440.84;212802;1277;141058;-65
2022/07/26 11:30:56;;;;;;;12.10;8.20;;;;;;;20.98;71.22;99441.67;214033;1276;141730;-65
2022/07/26 11:36:02;;;;;;;8.50;7.70;;;;;;;21.21;71.56;99440.65;213179;1278;143242;-64
2022/07/26 11:41:21;;;;;;;11.60;8.40;;;;;;;21.41;71.40;99450.74;213002;1279;142561;-65
2022/07/26 11:46:45;;;;;;;5.70;5.10;;;;;;;21.50;70.92;99453.16;214604;1279;140762;-67
2022/07/26 11:51:52;;;;;;;6.70;4.60;;;;;;;21.50;70.44;99458.21;214119;1277;140533;-67
2022/07/26 11:57:03;;;;;;;7.30;4.50;;;;;;;21.53;70.11;99458.09;215313;1279;141557;-66
2022/07/26 12:02:08;;;;;;;4.30;3.30;;;;;;;21.55;69.61;99457.44;214898;1278;141044;-68
2022/07/26 12:07:17;;;;;;;7.90;3.60;;;;;;;21.44;69.13;99463.10;214829;1278;141211;-66
2022/07/26 12:12:30;;;;;;;6.20;3.80;;;;;;;21.21;69.03;99457.59;214605;1277;141849;-66
2022/07/26 12:17:35;;;;;;;11.70;4.30;;;;;;;21.09;69.29;99454.30;214081;1278;140845;-65
2022/07/26 12:22:38;;;;;;;8.50;4.40;;;;;;;21.03;69.40;99455.65;213238;1278;140345;-66
2022/07/26 12:27:46;;;;;;;4.90;4.40;;;;;;;21.07;69.69;99458.10;213106;1278;140449;-65
2022/07/26 12:32:53;;;;;;;5.60;3.60;;;;;;;21.10;69.76;99453.12;213735;1278;140211;-65
2022/07/26 12:37:59;;;;;;;4.10;3.70;;;;;;;21.20;69.88;99451.15;213033;1278;140456;-65
2022/07/26 12:43:06;;;;;;;4.40;4.00;;;;;;;21.33;69.71;99441.06;213824;1278;141903;-65
2022/07/26 12:48:21;;;;;;;7.40;3.70;;;;;;;21.45;69.59;99436.59;212659;1279;140696;-66
2022/07/26 12:53:36;;;;;;;4.40;3.10;;;;;;;21.62;69.62;99432.29;213587;1279;221592;-68
2022/07/26 12:58:40;;;;;;;7.00;3.80;;;;;;;21.85;69.24;99427.64;212625;1279;139762;-66
2022/07/26 13:03:45;;;;;;;8.50;3.50;;;;;;;22.05;68.92;99426.86;212800;1278;140216;-65
2022/07/26 13:08:59;;;;;;;6.20;4.00;;;;;;;22.21;68.31;99426.52;213972;1278;141366;-66
2022/07/26 13:14:09;;;;;;;3.70;3.10;;;;;;;22.34;68.15;99430.67;213558;1279;140418;-65
2022/07/26 13:19:16;;;;;;;4.60;2.80;;;;;;;22.40;68.06;99429.23;213072;1278;143109;-67
2022/07/26 13:24:20;;;;;;;6.20;4.10;;;;;;;22.42;67.76;99424.51;213082;1279;140858;-66
2022/07/26 13:29:24;;;;;;;7.10;3.80;;;;;;;22.39;67.77;99428.88;214061;1279;141228;-68
2022/07/26 13:34:30;;;;;;;5.50;4.40;;;;;;;22.39;67.75;99435.95;213382;1279;141343;-66
2022/07/26 13:39:37;;;;;;;5.50;4.10;;;;;;;22.34;67.59;99431.98;212841;1278;140537;-66
2022/07/26 13:44:40;;;;;;;10.10;4.70;;;;;;;22.28;67.70;99427.65;214287;1278;144464;-66
2022/07/26 13:49:46;;;;;;;8.30;4.30;;;;;;;22.28;67.99;99428.94;215169;1278;141144;-65
2022/07/26 13:54:50;;;;;;;6.00;4.30;;;;;;;22.29;67.99;99429.83;214256;1279;141160;-65
2022/07/26 13:59:55;;;;;;;7.60;4.30;;;;;;;22.33;68.07;99433.71;215385;1278;142032;-66
2022/07/26 14:05:10;;;;;;;6.60;3.70;;;;;;;22.32;68.28;99434.96;215435;1278;141750;-65
2022/07/26 14:10:18;;;;;;;4.20;3.80;;;;;;;22.18;68.02;99432.59;214402;1278;140225;-65
2022/07/26 14:15:23;;;;;;;;;;;;;;;22.08;68.53;99435.84;214568;1278;140831;-66
2022/07/26 14:20:28;;;;;;;7.60;4.70;;;;;;;21.97;68.89;99439.20;215836;1277;126174;-66
2022/07/26 14:25:33;;;;;;;8.40;5.10;;;;;;;22.01;69.13;99443.59;213615;1279;140557;-65
2022/07/26 14:30:37;;;;;;;8.50;4.90;;;;;;;22.03;69.24;99446.34;213720;1278;142611;-64
2022/07/26 14:35:47;;;;;;;5.70;4.80;;;;;;;22.05;69.42;99447.48;214069;1279;140960;-65
2022/07/26 14:40:50;;;;;;;8.70;5.90;;;;;;;22.03;69.39;99449.91;213552;1278;140791;-65
2022/07/26 14:45:54;;;;;;;4.40;4.00;;;;;;;22.00;69.75;99450.12;214051;1278;140702;-66
2022/07/26 14:51:01;;;;;;;13.60;4.90;;;;;;;21.94;69.49;99449.77;212863;1279;139825;-67
2022/07/26 14:56:15;;;;;;;4.80;4.10;;;;;;;21.84;69.50;99453.88;213267;1279;141030;-65
2022/07/26 15:01:19;;;;;;;3.80;3.30;;;;;;;21.79;69.56;99447.95;213185;1279;139989;-67
2022/07/26 15:06:22;;;;;;;5.10;4.60;;;;;;;21.54;69.66;99455.06;212744;1279;140066;-67
2022/07/26 15:11:27;;;;;;;8.00;4.30;;;;;;;21.45;70.20;99451.71;212861;1279;139522;-68
2022/07/26 15:16:30;;;;;;;4.00;3.50;;;;;;;21.40;70.41;99454.15;212608;1279;140721;-66
2022/07/26 15:21:34;;;;;;;9.70;4.10;;;;;;;21.33;70.64;99454.36;213367;1278;140862;-66
2022/07/26 15:26:41;;;;;;;5.60;3.50;;;;;;;21.32;70.88;99450.05;213013;1276;141306;-66
2022/07/26 15:31:51;;;;;;;7.40;3.80;;;;;;;21.18;70.85;99450.05;213163;1278;140077;-66
2022/07/26 15:36:55;;;;;;;7.50;4.40;;;;;;;21.12;71.26;99448.25;214028;1279;151984;-67
2022/07/26 15:41:59;;;;;;;7.10;4.40;;;;;;;21.12;71.60;99447.38;214651;1279;141007;-69
2022/07/26 15:47:10;;;;;;;3.40;3.10;;;;;;;21.11;71.66;99441.00;213068;1279;141635;-66
2022/07/26 15:52:13;;;;;;;4.90;3.70;;;;;;;21.09;71.59;99440.28;214849;1278;142233;-67
2022/07/26 15:57:17;;;;;;;4.90;3.60;;;;;;;21.09;71.69;99436.64;212879;1279;142280;-65
2022/07/26 16:02:19;;;;;;;5.90;4.20;;;;;;;21.11;71.67;99438.15;213489;1278;140514;-65
2022/07/26 16:07:22;;;;;;;4.10;3.60;;;;;;;21.07;71.82;99438.27;215365;1278;140156;-65
2022/07/26 16:12:27;;;;;;;8.00;3.90;;;;;;;21.08;71.85;99435.08;215372;1279;140685;-66
2022/07/26 16:17:35;;;;;;;5.30;4.10;;;;;;;21.01;71.69;99433.92;213588;1279;141707;-64
2022/07/26 16:22:41;;;;;;;11.50;4.80;;;;;;;20.97;71.92;99430.39;214755;1279;141621;-66
2022/07/26 16:27:49;;;;;;;7.30;4.10;;;;;;;20.95;72.01;99431.36;214383;1279;152704;-66
2022/07/26 16:33:00;;;;;;;7.90;5.30;;;;;;;20.91;72.12;99427.13;214909;1277;140839;-64
2022/07/26 16:38:08;;;;;;;4.80;4.30;;;;;;;20.90;72.27;99429.58;214080;1277;141669;-64
2022/07/26 16:43:12;;;;;;;6.30;5.20;;;;;;;20.97;72.47;99432.84;213268;1277;142041;-63
2022/07/26 16:48:15;;;;;;;6.80;5.20;;;;;;;21.05;72.52;99433.69;212774;1279;141791;-64
2022/07/26 16:53:21;;;;;;;8.00;4.50;;;;;;;21.10;72.70;99433.39;214431;1278;140124;-67
2022/07/26 16:58:30;;;;;;;7.40;4.50;;;;;;;21.27;72.66;99428.90;213816;1279;140645;-64
2022/07/26 17:03:34;;;;;;;5.90;4.40;;;;;;;21.44;72.38;99430.50;213927;1277;140866;-65
2022/07/26 17:08:37;;;;;;;7.50;5.10;;;;;;;21.63;72.03;99432.16;213380;1278;153654;-67
2022/07/26 17:13:41;;;;;;;8.10;4.40;;;;;;;21.74;71.96;99425.73;213163;1278;141183;-70
2022/07/26 17:18:43;;;;;;;8.30;4.80;;;;;;;21.82;71.66;99426.74;213101;1278;140536;-67
2022/07/26 17:23:47;;;;;;;7.80;4.60;;;;;;;21.97;71.36;99431.05;212755;1278;141127;-65
2022/07/26 17:28:50;;;;;;;5.20;4.60;;;;;;;22.07;70.95;99430.80;213658;1279;142802;-65
2022/07/26 17:33:52;;;;;;;4.40;4.10;;;;;;;22.05;70.39;99435.04;213986;1279;139981;-66
2022/07/26 17:38:56;;;;;;;6.40;4.60;;;;;;;22.01;70.03;99433.89;214400;1279;140294;-63
2022/07/26 17:44:04;;;;;;;10.40;4.90;;;;;;;21.96;70.01;99436.61;214365;1279;140764;-65
2022/07/26 17:49:07;;;;;;;7.80;4.50;;;;;;;21.95;70.03;99442.17;213376;1279;140489;-64
2022/07/26 17:54:10;;;;;;;5.10;4.60;;;;;;;21.88;69.89;99438.79;214550;1278;699196;-66
2022/07/26 17:59:19;;;;;;;12.30;4.80;;;;;;;21.75;69.90;99438.50;214326;1278;140523;-66
2022/07/26 18:04:25;;;;;;;5.10;4.40;;;;;;;21.59;69.98;99436.10;215286;1278;141218;-67
2022/07/26 18:09:28;;;;;;;4.90;4.40;;;;;;;21.45;69.98;99441.98;213071;1281;140672;-65
2022/07/26 18:14:32;;;;;;;8.10;4.70;;;;;;;21.31;70.09;99434.18;214343;1279;139344;-65
2022/07/26 18:19:37;;;;;;;4.70;4.30;;;;;;;21.15;70.13;99439.18;214486;1279;140732;-65
2022/07/26 18:24:44;;;;;;;6.20;4.80;;;;;;;20.96;70.20;99438.64;213232;1279;142817;-65
2022/07/26 18:29:47;;;;;;;13.80;4.50;;;;;;;20.82;70.31;99436.73;213281;1280;141058;-64
2022/07/26 18:34:50;;;;;;;4.40;3.40;;;;;;;20.66;70.34;99442.78;213878;1278;142929;-66
2022/07/26 18:39:58;;;;;;;6.10;3.30;;;;;;;20.44;70.29;99450.86;213389;1278;139843;-65
2022/07/26 18:45:01;;;;;;;5.90;4.00;;;;;;;20.13;70.32;99454.20;213844;1277;140951;-67
2022/07/26 18:50:09;;;;;;;4.30;3.60;;;;;;;19.77;70.50;99453.46;213073;1279;140198;-64
2022/07/26 18:55:14;;;;;;;6.20;4.50;;;;;;;19.56;71.09;99454.32;212895;1277;140053;-64
2022/07/26 19:00:21;;;;;;;4.30;3.90;;;;;;;19.44;71.20;99455.98;214068;1278;140058;-63
2022/07/26 19:05:31;;;;;;;8.20;3.60;;;;;;;19.25;71.29;99450.49;213031;1279;141017;-65
2022/07/26 19:10:38;;;;;;;6.10;3.90;;;;;;;19.13;71.59;99451.91;213814;1278;140304;-66
2022/07/26 19:15:41;;;;;;;4.90;4.50;;;;;;;19.12;71.72;99453.05;213148;1277;143151;-66
2022/07/26 19:20:45;;;;;;;7.80;3.80;;;;;;;19.03;71.70;99455.48;212908;1279;140568;-64
2022/07/26 19:25:50;;;;;;;6.10;4.50;;;;;;;18.83;71.72;99455.90;213626;1278;140271;-65
2022/07/26 19:30:54;;;;;;;4.30;4.00;;;;;;;18.63;71.93;99456.31;212822;1278;141442;-64
2022/07/26 19:35:57;;;;;;;4.50;4.00;;;;;;;18.52;72.08;99457.77;213930;1279;142424;-64
2022/07/26 19:41:01;;;;;;;5.90;4.40;;;;;;;18.41;72.32;99457.80;213857;1277;142135;-64
2022/07/26 19:46:05;;;;;;;4.30;3.90;;;;;;;18.21;72.33;99456.23;213136;1279;142708;-64
2022/07/26 19:51:09;;;;;;;5.30;3.30;;;;;;;18.04;72.54;99453.11;213679;1280;140853;-66
2022/07/26 19:56:15;;;;;;;4.70;4.20;;;;;;;17.92;72.80;99449.72;214975;1277;140671;-67
2022/07/26 20:01:22;;;;;;;8.40;4.60;;;;;;;17.83;72.97;99445.02;214588;1279;141137;-65
2022/07/26 20:06:25;;;;;;;6.90;3.70;;;;;;;17.79;73.19;99448.09;215068;1277;140246;-64
2022/07/26 20:11:27;;;;;;;14.70;5.50;;;;;;;17.68;73.31;99444.53;214780;1280;139991;-64
2022/07/26 20:16:31;;;;;;;6.30;4.50;;;;;;;17.66;73.37;99446.23;214041;1278;140834;-64
2022/07/26 20:21:34;;;;;;;3.60;3.30;;;;;;;17.68;73.61;99454.02;213692;1277;141363;-63
2022/07/26 20:26:39;;;;;;;10.70;4.10;;;;;;;17.71;73.62;99457.44;214202;1277;140572;-64
2022/07/26 20:31:45;;;;;;;4.60;4.20;;;;;;;17.69;73.36;99459.81;214336;1278;140582;-65
2022/07/26 20:36:52;;;;;;;4.10;3.80;;;;;;;17.54;73.30;99463.79;213610;1279;139994;-65
2022/07/26 20:41:56;;;;;;;6.50;4.00;;;;;;;17.47;73.49;99467.02;214130;1277;140800;-65
2022/07/26 20:46:59;;;;;;;6.80;4.50;;;;;;;17.46;73.54;99470.87;212906;1279;142777;-65
2022/07/26 20:52:03;;;;;;;4.70;4.30;;;;;;;17.41;73.59;99477.36;213055;1279;167100;-65
2022/07/26 20:57:05;;;;;;;6.00;4.80;;;;;;;17.33;73.85;99482.25;213449;1278;142150;-63
2022/07/26 21:02:08;;;;;;;6.60;4.80;;;;;;;17.33;74.45;99480.02;213572;1279;143565;-64
2022/07/26 21:07:11;;;;;;;4.30;4.00;;;;;;;17.33;74.42;99486.92;214083;1278;140523;-64
2022/07/26 21:12:13;;;;;;;5.70;4.30;;;;;;;17.31;74.42;99491.79;213208;1279;140908;-65
2022/07/26 21:17:16;;;;;;;9.60;5.40;;;;;;;17.32;74.55;99496.42;214088;1277;140379;-64
2022/07/26 21:22:18;;;;;;;5.20;4.70;;;;;;;17.32;74.60;99504.13;213556;1277;140026;-63
2022/07/26 21:27:22;;;;;;;10.10;5.10;;;;;;;17.32;74.52;99508.65;214119;1277;139809;-65
2022/07/26 21:32:24;;;;;;;6.10;4.20;;;;;;;17.35;74.56;99508.09;214895;1277;140962;-67
2022/07/26 21:37:32;;;;;;;11.20;6.10;;;;;;;17.40;74.63;99514.67;215400;1277;143367;-64
2022/07/26 21:42:34;;;;;;;6.20;5.60;;;;;;;17.42;74.55;99516.89;212663;1279;140784;-64
2022/07/26 21:47:38;;;;;;;6.00;4.80;;;;;;;17.41;74.53;99523.00;214334;1277;139585;-64
2022/07/26 21:52:41;;;;;;;10.10;5.40;;;;;;;17.40;74.53;99521.34;215247;1277;140510;-66
2022/07/26 21:57:44;;;;;;;6.50;4.60;;;;;;;17.39;74.45;99524.00;215109;1278;141307;-64
2022/07/26 22:02:47;;;;;;;4.80;4.30;;;;;;;17.33;74.53;99526.47;215275;1277;142282;-65
2022/07/26 22:07:50;;;;;;;5.00;3.70;;;;;;;17.36;74.91;99526.77;213349;1278;141779;-65
2022/07/26 22:12:52;;;;;;;9.20;4.80;;;;;;;17.39;75.17;99534.50;214800;1277;142174;-65
2022/07/26 22:17:58;;;;;;;5.10;4.60;;;;;;;17.43;75.28;99536.56;212903;1279;140289;-66
2022/07/26 22:23:07;;;;;;;4.10;3.80;;;;;;;17.45;75.48;99545.00;213517;1278;153492;-64
2022/07/26 22:28:12;;;;;;;9.90;3.60;;;;;;;17.51;75.49;99542.08;213281;1279;142011;-65
2022/07/26 22:33:20;;;;;;;5.50;3.20;;;;;;;17.58;75.35;99547.77;212608;1279;142378;-66
2022/07/26 22:38:22;;;;;;;4.00;3.40;;;;;;;17.63;75.33;99552.32;213962;1277;141773;-65
2022/07/26 22:43:25;;;;;;;3.10;2.90;;;;;;;17.69;75.29;99556.65;212799;1277;141326;-66
2022/07/26 22:48:28;;;;;;;3.00;2.80;;;;;;;17.72;75.25;99564.39;212576;1277;140481;-63
2022/07/26 22:53:31;;;;;;;3.90;3.20;;;;;;;17.76;75.13;99573.54;213512;1278;141247;-64
2022/07/26 22:58:34;;;;;;;4.30;2.60;;;;;;;17.79;75.07;99579.34;213134;1278;164683;-63
2022/07/26 23:03:38;;;;;;;4.50;3.20;;;;;;;17.85;74.92;99576.20;213256;1278;141848;-66
2022/07/26 23:08:43;;;;;;;3.60;2.80;;;;;;;17.88;74.90;99575.58;213223;1279;140283;-65
2022/07/26 23:13:50;;;;;;;2.10;2.00;;;;;;;17.89;74.75;99583.45;214284;1277;139336;-66
2022/07/26 23:19:01;;;;;;;5.30;2.90;;;;;;;17.92;74.62;99584.17;213874;1277;141120;-64
2022/07/26 23:24:04;;;;;;;5.40;2.90;;;;;;;17.96;74.48;99586.98;214181;1277;140567;-65
2022/07/26 23:29:07;;;;;;;8.00;3.80;;;;;;;17.98;74.34;99589.95;213993;1277;140089;-66